Time;durP1;ratioP1;P1;durP2;ratioP2;P2;SDS_P1;SDS_P2;PMS_P1;PMS_P2;Temp;Humidity;BMP_temperature;BMP_pressure;BME280_temperature;BME280_humidity;BME280_pressure;Samples;Min_cycle;Max_cycle;Signal;HPM_P1;HPM_P2
2021/03/25 00:00:54;;;;;;;3.80;3.00;;;;;;;-2.06;92.95;93512.59;2098613;28;20509;-81
2021/03/25 00:01:57;;;;;;;3.97;2.75;;;;;;;-2.05;92.94;93510.72;2115273;27;20753;-81
2021/03/25 00:02:59;;;;;;;3.78;2.65;;;;;;;-2.05;92.19;93513.34;2090612;28;20833;-81
2021/03/25 00:04:00;;;;;;;3.88;2.75;;;;;;;-2.05;92.07;93516.72;2094206;28;20467;-81
2021/03/25 00:05:00;;;;;;;3.28;2.75;;;;;;;-2.10;91.75;93514.34;2090127;28;20493;-81
2021/03/25 00:06:01;;;;;;;4.78;3.13;;;;;;;-2.05;92.14;93508.13;2083202;28;20494;-82
2021/03/25 00:07:02;;;;;;;4.82;3.00;;;;;;;-2.05;91.03;93511.50;2105849;28;20116;-81
2021/03/25 00:08:05;;;;;;;4.57;2.88;;;;;;;-2.08;92.13;93512.13;2091181;28;20029;-81
2021/03/25 00:09:15;;;;;;;4.45;2.70;;;;;;;-2.05;92.25;93510.72;2107545;27;20030;-81
2021/03/25 00:10:22;;;;;;;2.90;2.42;;;;;;;-2.04;92.07;93505.16;2113894;28;20626;-79
2021/03/25 00:11:23;;;;;;;3.03;2.22;;;;;;;-2.06;91.57;93504.72;2110409;28;20107;-81
2021/03/25 00:12:23;;;;;;;3.10;2.78;;;;;;;-2.09;91.23;93508.00;2106429;28;20484;-81
2021/03/25 00:13:24;;;;;;;3.53;2.65;;;;;;;-2.09;91.85;93508.00;2106139;28;20024;-81
2021/03/25 00:14:25;;;;;;;5.65;3.03;;;;;;;-2.08;91.78;93501.66;2115121;28;20143;-80
2021/03/25 00:15:27;;;;;;;4.80;2.42;;;;;;;-2.07;91.39;93505.03;2098541;28;20051;-81
2021/03/25 00:16:28;;;;;;;4.65;2.60;;;;;;;-2.09;92.53;93504.63;2098496;28;20443;-82
2021/03/25 00:17:28;;;;;;;5.40;2.90;;;;;;;-2.06;92.23;93509.97;2094529;28;20442;-81
2021/03/25 00:18:29;;;;;;;3.55;2.80;;;;;;;-2.09;92.34;93505.38;2094447;28;20048;-82
2021/03/25 00:19:29;;;;;;;2.88;2.38;;;;;;;-2.05;92.61;93500.25;2098279;28;20035;-81
2021/03/25 00:20:30;;;;;;;3.58;2.78;;;;;;;-2.07;92.68;93499.81;2093425;28;20032;-81
2021/03/25 00:21:30;;;;;;;3.88;3.00;;;;;;;-2.09;92.26;93507.25;2111457;28;20024;-82
2021/03/25 00:22:31;;;;;;;3.10;2.80;;;;;;;-2.13;92.13;93499.25;2118621;27;20163;-81
2021/03/25 00:23:32;;;;;;;6.05;3.03;;;;;;;-2.14;91.82;93500.34;2103098;28;20027;-80
2021/03/25 00:24:32;;;;;;;3.67;2.95;;;;;;;-2.15;92.61;93496.22;2098100;28;20143;-81
2021/03/25 00:25:35;;;;;;;6.10;3.15;;;;;;;-2.19;92.85;93494.56;2109130;28;20468;-80
2021/03/25 00:26:36;;;;;;;5.05;2.65;;;;;;;-2.21;92.56;93492.28;2117861;27;20413;-80
2021/03/25 00:27:36;;;;;;;3.97;3.03;;;;;;;-2.15;92.43;93505.91;2117881;27;20465;-80
2021/03/25 00:28:36;;;;;;;3.33;2.90;;;;;;;-2.18;93.15;93496.09;2126625;27;20025;-79
2021/03/25 00:29:37;;;;;;;3.60;2.78;;;;;;;-2.18;93.26;93498.72;2114905;28;20111;-79
2021/03/25 00:30:38;;;;;;;3.83;2.95;;;;;;;-2.21;93.22;93500.13;2106645;28;20020;-81
2021/03/25 00:31:40;;;;;;;4.22;2.85;;;;;;;-2.19;93.30;93497.19;2104332;28;20028;-78
2021/03/25 00:32:42;;;;;;;4.32;3.30;;;;;;;-2.17;92.83;93495.00;2115158;27;20580;-80
2021/03/25 00:33:42;;;;;;;3.28;2.63;;;;;;;-2.17;92.86;93492.38;2110811;28;21254;-80
2021/03/25 00:34:43;;;;;;;4.82;2.95;;;;;;;-2.23;92.73;93485.84;2108169;28;20488;-80
2021/03/25 00:35:44;;;;;;;3.60;2.92;;;;;;;-2.26;93.04;93495.09;2119729;27;20057;-79
2021/03/25 00:36:45;;;;;;;4.45;3.00;;;;;;;-2.24;92.96;93486.91;2107959;28;20020;-80
2021/03/25 00:37:45;;;;;;;3.10;2.67;;;;;;;-2.24;92.60;93492.91;2113583;28;21065;-80
2021/03/25 00:38:46;;;;;;;5.63;3.47;;;;;;;-2.21;91.89;93492.28;2106481;28;20028;-80
2021/03/25 00:39:46;;;;;;;4.30;2.75;;;;;;;-2.24;92.15;93490.28;2105159;28;20027;-81
2021/03/25 00:40:49;;;;;;;4.22;3.03;;;;;;;-2.24;92.31;93487.66;2106539;28;20024;-79
2021/03/25 00:41:50;;;;;;;3.28;2.97;;;;;;;-2.26;92.40;93489.09;2098685;28;20027;-79
2021/03/25 00:42:50;;;;;;;3.33;2.65;;;;;;;-2.29;92.64;93485.28;2107287;28;20468;-80
2021/03/25 00:43:51;;;;;;;5.63;2.83;;;;;;;-2.28;92.61;93484.97;2122130;27;20062;-81
2021/03/25 00:44:51;;;;;;;7.55;3.00;;;;;;;-2.28;92.97;93487.59;2114915;28;20023;-80
2021/03/25 00:45:52;;;;;;;4.05;2.60;;;;;;;-2.29;92.70;93499.13;2114921;28;20028;-82
2021/03/25 00:46:52;;;;;;;2.92;2.50;;;;;;;-2.30;92.89;93486.38;2098427;28;20036;-80
2021/03/25 00:47:53;;;;;;;4.97;3.10;;;;;;;-2.31;92.43;93484.84;2097577;28;20110;-80
2021/03/25 00:48:53;;;;;;;3.97;3.03;;;;;;;-2.26;92.96;93491.72;2090147;28;20033;-80
2021/03/25 00:49:54;;;;;;;3.72;2.78;;;;;;;-2.25;93.13;93488.00;2097804;28;20028;-81
2021/03/25 00:51:02;;;;;;;3.10;2.75;;;;;;;-2.25;92.62;93485.38;2106274;28;20028;-81
2021/03/25 00:52:03;;;;;;;5.80;2.78;;;;;;;-2.26;92.58;93478.63;2100038;28;20035;-81
2021/03/25 00:53:05;;;;;;;3.35;2.53;;;;;;;-2.26;92.35;93484.63;2096909;28;20811;-79
2021/03/25 00:54:06;;;;;;;2.92;2.50;;;;;;;-2.29;92.29;93485.28;2091114;28;20455;-80
2021/03/25 00:55:07;;;;;;;3.63;2.83;;;;;;;-2.28;92.25;93477.09;2114749;28;20449;-81
2021/03/25 00:56:07;;;;;;;4.80;2.80;;;;;;;-2.25;91.48;93485.38;2106568;28;20043;-81
2021/03/25 00:57:08;;;;;;;3.90;2.63;;;;;;;-2.26;91.57;93478.63;2098150;28;20025;-79
2021/03/25 00:58:09;;;;;;;4.57;2.88;;;;;;;-2.28;92.04;93478.97;2104471;28;20024;-80
2021/03/25 00:59:09;;;;;;;3.45;2.58;;;;;;;-2.28;92.04;93479.72;2110146;27;20030;-79
2021/03/25 01:00:12;;;;;;;3.65;2.47;;;;;;;-2.28;92.19;93476.34;2104488;28;20055;-81
2021/03/25 01:01:13;;;;;;;3.90;2.90;;;;;;;-2.29;92.45;93480.03;2090022;28;20031;-80
2021/03/25 01:02:13;;;;;;;2.63;2.40;;;;;;;-2.30;92.14;93481.88;2094579;28;20450;-81
2021/03/25 01:03:16;;;;;;;3.22;2.47;;;;;;;-2.29;92.55;93477.41;2101859;28;20020;-80
2021/03/25 01:04:16;;;;;;;4.07;2.70;;;;;;;-2.31;92.79;93477.75;2097805;28;20044;-81
2021/03/25 01:05:17;;;;;;;4.90;3.15;;;;;;;-2.35;92.02;93473.50;2100692;28;20465;-80
2021/03/25 01:06:18;;;;;;;4.07;2.88;;;;;;;-2.32;92.58;93476.22;2092631;28;20085;-79
2021/03/25 01:07:29;;;;;;;4.75;2.95;;;;;;;-2.33;92.18;93481.78;2093720;28;20496;-79
2021/03/25 01:08:31;;;;;;;3.53;2.95;;;;;;;-2.36;92.18;93471.97;2099380;28;20024;-81
2021/03/25 01:09:32;;;;;;;3.53;2.80;;;;;;;-2.33;92.32;93476.53;2094819;28;20535;-82
2021/03/25 01:10:39;;;;;;;3.75;2.65;;;;;;;-2.32;92.68;93467.63;2097900;28;20998;-81
2021/03/25 01:11:39;;;;;;;4.18;3.08;;;;;;;-2.31;92.91;93471.75;2106330;28;20032;-80
2021/03/25 01:12:40;;;;;;;3.00;2.47;;;;;;;-2.31;92.66;93472.50;2101897;28;20438;-81
2021/03/25 01:13:56;;;;;;;3.15;2.42;;;;;;;-2.35;92.53;93479.50;2102079;28;20066;-80
2021/03/25 01:14:56;;;;;;;4.18;2.90;;;;;;;-2.42;92.45;93471.41;2106066;28;20542;-80
2021/03/25 01:15:58;;;;;;;3.60;2.38;;;;;;;-2.36;91.96;93474.59;2101786;28;20439;-80
2021/03/25 01:17:02;;;;;;;4.50;2.58;;;;;;;-2.35;92.34;93476.88;2106575;27;20024;-81
2021/03/25 01:18:05;;;;;;;2.67;2.45;;;;;;;-2.40;92.89;93479.72;2113773;28;20767;-80
2021/03/25 01:19:38;;;;;;;3.80;3.15;;;;;;;-2.42;93.00;93479.25;2100451;28;20910;-80
2021/03/25 01:20:41;;;;;;;3.53;3.05;;;;;;;-2.41;92.50;93466.94;2084611;28;20442;-81
2021/03/25 01:21:42;;;;;;;3.25;2.67;;;;;;;-2.42;92.17;93475.88;2106637;28;20409;-80
2021/03/25 01:22:42;;;;;;;2.65;2.42;;;;;;;-2.38;92.24;93468.91;2127667;27;20480;-82
2021/03/25 01:23:43;;;;;;;2.90;2.60;;;;;;;-2.42;92.92;93462.78;2114603;28;20035;-81
2021/03/25 01:24:43;;;;;;;3.78;3.10;;;;;;;-2.45;92.83;93461.59;2114634;28;20069;-80
2021/03/25 01:25:44;;;;;;;4.32;2.90;;;;;;;-2.50;92.96;93469.66;2116266;27;20365;-81
2021/03/25 01:26:45;;;;;;;3.30;2.42;;;;;;;-2.51;93.09;93468.13;2116899;27;20046;-81
2021/03/25 01:27:46;;;;;;;3.45;2.92;;;;;;;-2.50;92.70;93468.88;2099255;28;20458;-81
2021/03/25 01:28:47;;;;;;;3.17;2.70;;;;;;;-2.48;93.09;93467.47;2089584;28;20024;-81
2021/03/25 01:29:47;;;;;;;4.72;2.90;;;;;;;-2.55;93.37;93462.00;2089543;28;20444;-80
2021/03/25 01:30:48;;;;;;;3.40;3.10;;;;;;;-2.55;93.42;93465.41;2092383;28;20066;-81
2021/03/25 01:31:49;;;;;;;3.88;3.08;;;;;;;-2.48;93.27;93458.84;2106150;28;20052;-81
2021/03/25 01:32:50;;;;;;;3.10;2.80;;;;;;;-2.54;93.49;93459.06;2114563;28;20471;-80
2021/03/25 01:33:50;;;;;;;4.68;3.30;;;;;;;-2.51;93.30;93462.13;2106050;28;20024;-81
2021/03/25 01:34:51;;;;;;;3.35;2.90;;;;;;;-2.56;93.32;93461.22;2094249;28;20772;-80
2021/03/25 01:35:51;;;;;;;3.00;2.70;;;;;;;-2.57;93.41;93459.72;2089397;28;20071;-79
2021/03/25 01:36:52;;;;;;;3.50;3.00;;;;;;;-2.54;93.32;93458.31;2089456;28;20367;-81
2021/03/25 01:37:53;;;;;;;2.90;2.28;;;;;;;-2.58;93.07;93452.97;2089432;28;20025;-80
2021/03/25 01:38:53;;;;;;;4.70;2.80;;;;;;;-2.58;93.35;93446.97;2097323;28;20105;-81
2021/03/25 01:39:54;;;;;;;3.08;2.70;;;;;;;-2.60;93.79;93444.66;2106070;28;20113;-80
2021/03/25 01:40:59;;;;;;;3.17;2.53;;;;;;;-2.60;93.61;93449.88;2126841;27;20026;-81
2021/03/25 01:42:00;;;;;;;3.38;2.58;;;;;;;-2.59;93.06;93445.41;2106028;28;20031;-81
2021/03/25 01:43:09;;;;;;;2.67;2.40;;;;;;;-2.59;93.16;93445.41;2089349;28;20447;-80
2021/03/25 01:44:33;;;;;;;3.05;2.53;;;;;;;-2.62;93.09;93446.84;2098552;28;20031;-79
2021/03/25 01:45:35;;;;;;;2.88;2.38;;;;;;;-2.61;92.77;93439.75;2106028;28;20763;-81
2021/03/25 01:46:39;;;;;;;3.78;2.60;;;;;;;-2.64;92.94;93450.84;2102339;28;20450;-82
2021/03/25 01:47:39;;;;;;;3.83;2.53;;;;;;;-2.59;93.22;93450.66;2089764;28;20447;-81
2021/03/25 01:48:42;;;;;;;4.40;2.80;;;;;;;-2.63;92.60;93449.78;2105869;28;20476;-81
2021/03/25 01:49:42;;;;;;;2.60;2.30;;;;;;;-2.60;92.74;93449.88;2105902;28;20024;-79
2021/03/25 01:50:43;;;;;;;4.10;2.90;;;;;;;-2.62;93.25;93440.84;2097756;28;20442;-79
2021/03/25 01:51:43;;;;;;;2.83;2.30;;;;;;;-2.63;93.17;93447.94;2097670;28;20101;-80
2021/03/25 01:53:26;;;;;;;2.45;2.15;;;;;;;-2.51;92.55;93443.78;2089230;28;20031;-80
2021/03/25 01:54:35;;;;;;;3.35;2.65;;;;;;;-2.57;92.32;93445.88;2089233;28;20124;-81
2021/03/25 01:55:44;;;;;;;3.03;2.53;;;;;;;-2.47;93.23;93439.44;2103933;28;20892;-80
2021/03/25 01:57:11;;;;;;;4.10;2.75;;;;;;;-2.54;92.48;93437.38;2105920;28;20442;-81
2021/03/25 01:58:29;;;;;;;3.05;2.50;;;;;;;-2.60;93.11;93434.19;2096358;28;20487;-81
2021/03/25 01:59:46;;;;;;;3.45;2.35;;;;;;;-2.58;92.79;93436.50;2110686;27;20442;-79
2021/03/25 02:01:02;;;;;;;3.15;2.60;;;;;;;-2.54;92.99;93440.75;2114219;28;20430;-81
2021/03/25 02:02:23;;;;;;;2.83;2.40;;;;;;;-2.54;92.47;93440.00;2108105;28;20430;-81
2021/03/25 02:03:38;;;;;;;3.10;2.60;;;;;;;-2.66;93.40;93434.72;2099733;28;20447;-81
2021/03/25 02:05:17;;;;;;;3.08;2.70;;;;;;;-2.70;93.78;93436.47;2085362;28;20471;-80
2021/03/25 02:06:24;;;;;;;2.72;2.20;;;;;;;-2.69;93.39;93436.13;2066376;28;20526;-81
2021/03/25 02:08:01;;;;;;;3.25;2.45;;;;;;;-2.67;93.54;93436.59;2072183;28;20503;-79
2021/03/25 02:09:22;;;;;;;7.22;2.85;;;;;;;-2.67;93.31;93428.75;2087993;28;20435;-81
2021/03/25 02:10:33;;;;;;;3.38;2.20;;;;;;;-2.72;92.91;93434.19;2106020;28;20871;-80
2021/03/25 02:12:12;;;;;;;3.15;2.33;;;;;;;-2.72;93.36;93426.34;2100432;28;20804;-81
2021/03/25 02:13:24;;;;;;;3.33;2.08;;;;;;;-2.73;93.45;93430.03;2107399;27;20456;-81
2021/03/25 02:14:39;;;;;;;4.82;2.70;;;;;;;-2.74;93.08;93433.72;2114255;28;20510;-80
2021/03/25 02:15:39;;;;;;;3.10;2.03;;;;;;;-2.72;93.07;93431.56;2107779;28;20445;-81
2021/03/25 02:16:59;;;;;;;3.38;2.42;;;;;;;-2.77;93.29;93431.75;2105917;28;20458;-81
2021/03/25 02:18:10;;;;;;;3.15;2.80;;;;;;;-2.74;93.57;93422.50;2086299;28;20037;-82
2021/03/25 02:19:22;;;;;;;4.68;2.45;;;;;;;-2.78;93.47;93435.47;2109305;28;20039;-80
2021/03/25 02:20:47;;;;;;;3.95;2.00;;;;;;;-2.77;92.96;93423.91;2102203;28;20855;-81
2021/03/25 02:22:31;;;;;;;4.35;1.98;;;;;;;-2.79;93.63;93426.09;2102520;28;20490;-81
2021/03/25 02:23:56;;;;;;;2.55;1.83;;;;;;;-2.81;93.55;93421.19;2074572;28;20496;-81
2021/03/25 02:25:12;;;;;;;2.88;1.63;;;;;;;-2.79;93.78;93413.00;2089236;28;20432;-80
2021/03/25 02:26:29;;;;;;;2.50;2.00;;;;;;;-2.80;93.57;93427.94;2081709;28;20562;-82
2021/03/25 02:28:11;;;;;;;2.65;2.10;;;;;;;-2.81;93.88;93426.44;2085492;28;20428;-82
2021/03/25 02:29:37;;;;;;;2.38;1.83;;;;;;;-2.83;93.87;93425.97;2085919;28;20495;-81
2021/03/25 02:30:57;;;;;;;2.08;1.70;;;;;;;-2.86;93.70;93421.38;2098730;28;20500;-81
2021/03/25 02:32:03;;;;;;;3.70;1.98;;;;;;;-2.87;93.73;93412.00;2084578;28;20466;-82
2021/03/25 02:33:08;;;;;;;3.03;2.10;;;;;;;-2.88;94.12;93415.72;2100529;27;20434;-82
2021/03/25 02:34:15;;;;;;;2.35;1.98;;;;;;;-2.86;93.65;93413.53;2122050;28;20466;-82
2021/03/25 02:35:30;;;;;;;2.22;2.00;;;;;;;-2.86;93.21;93415.38;2106513;28;20464;-80
2021/03/25 02:36:41;;;;;;;3.17;2.00;;;;;;;-2.88;93.93;93409.72;2112682;28;20434;-82
2021/03/25 02:37:44;;;;;;;;;;;;;;;-2.88;93.54;93422.81;2106379;28;20525;-81
2021/03/25 02:38:51;;;;;;;3.67;2.03;;;;;;;-2.89;93.68;93416.06;2105487;28;20339;-80
2021/03/25 02:40:13;;;;;;;3.47;2.15;;;;;;;-2.90;92.64;93411.88;2082478;28;20424;-82
2021/03/25 02:41:20;;;;;;;3.67;1.95;;;;;;;-2.85;92.64;93412.47;2086663;28;20435;-82
2021/03/25 02:42:27;;;;;;;3.72;2.20;;;;;;;-2.86;93.03;93423.22;2086618;28;20440;-82
2021/03/25 02:43:43;;;;;;;4.38;2.33;;;;;;;-2.84;93.23;93405.38;2086972;28;20439;-79
2021/03/25 02:44:57;;;;;;;2.30;2.08;;;;;;;-2.94;93.46;93408.38;2093053;28;20443;-81
2021/03/25 02:46:07;;;;;;;1.85;1.52;;;;;;;-2.89;93.71;93410.81;2092412;28;20471;-80
2021/03/25 02:47:08;;;;;;;;;;;;;;;-2.91;93.20;93412.97;2092206;28;20440;-80
2021/03/25 02:48:13;;;;;;;3.33;1.77;;;;;;;-2.88;93.05;93412.34;2104182;28;19908;-82
2021/03/25 02:49:18;;;;;;;2.42;1.88;;;;;;;-2.87;93.95;93401.56;2093351;28;20509;-81
2021/03/25 02:50:34;;;;;;;3.15;2.00;;;;;;;-2.88;93.65;93412.34;2091500;28;20542;-80
2021/03/25 02:51:48;;;;;;;3.50;2.05;;;;;;;-2.95;93.38;93409.47;2109709;27;20418;-81
2021/03/25 02:52:57;;;;;;;3.83;2.20;;;;;;;-2.94;94.14;93406.56;2122426;27;20841;-81
2021/03/25 02:53:58;;;;;;;2.55;1.92;;;;;;;-2.93;93.62;93408.09;2105530;28;20500;-80
2021/03/25 02:55:02;;;;;;;3.85;2.17;;;;;;;-2.90;93.43;93410.03;2088965;28;20867;-80
2021/03/25 02:56:10;;;;;;;3.60;2.10;;;;;;;-2.91;93.61;93412.97;2109475;28;20103;-81
2021/03/25 02:57:20;;;;;;;3.83;2.25;;;;;;;-2.90;93.20;93406.66;2108169;28;20431;-80
2021/03/25 02:58:24;;;;;;;2.40;2.03;;;;;;;-2.92;93.56;93412.22;2106355;28;20780;-81
2021/03/25 02:59:30;;;;;;;2.38;1.92;;;;;;;-2.94;93.53;93411.00;2097940;28;20043;-80
2021/03/25 03:00:37;;;;;;;3.35;2.15;;;;;;;-2.91;93.29;93405.13;2108897;27;20458;-80
2021/03/25 03:01:44;;;;;;;2.92;2.22;;;;;;;-2.94;93.73;93408.38;2110297;28;20992;-80
2021/03/25 03:02:48;;;;;;;3.03;2.42;;;;;;;-2.93;93.75;93404.72;2107260;28;20556;-82
2021/03/25 03:03:56;;;;;;;4.05;2.38;;;;;;;-2.93;93.99;93404.72;2099222;28;20608;-81
2021/03/25 03:05:05;;;;;;;1.92;1.75;;;;;;;-2.97;93.95;93407.19;2116616;27;20425;-80
2021/03/25 03:06:12;;;;;;;3.97;2.70;;;;;;;-2.97;93.51;93412.44;2107412;28;20461;-81
2021/03/25 03:07:21;;;;;;;3.88;2.60;;;;;;;-2.97;93.83;93403.81;2091419;28;20448;-80
2021/03/25 03:08:28;;;;;;;3.78;2.15;;;;;;;-2.95;93.83;93402.41;2084882;28;20452;-81
2021/03/25 03:09:35;;;;;;;2.63;2.20;;;;;;;-3.02;94.29;93402.19;2092175;28;20107;-80
2021/03/25 03:10:42;;;;;;;3.20;2.28;;;;;;;-3.00;94.19;93407.06;2100588;28;20434;-81
2021/03/25 03:11:46;;;;;;;3.38;2.30;;;;;;;-3.04;94.37;93406.94;2100641;28;20492;-80
2021/03/25 03:12:50;;;;;;;4.15;2.75;;;;;;;-3.07;94.49;93411.00;2099767;28;20439;-81
2021/03/25 03:13:57;;;;;;;3.50;2.00;;;;;;;-3.02;94.21;93402.19;2092135;28;20454;-80
2021/03/25 03:15:24;;;;;;;3.58;2.42;;;;;;;-2.98;93.65;93405.69;2107934;28;20436;-81
2021/03/25 03:16:34;;;;;;;2.67;2.03;;;;;;;-2.93;93.53;93412.56;2117955;27;20531;-82
2021/03/25 03:17:42;;;;;;;3.15;2.50;;;;;;;-2.97;93.24;93406.44;2127924;27;20416;-80
2021/03/25 03:18:57;;;;;;;2.50;2.30;;;;;;;-2.97;93.83;93401.22;2124674;27;20031;-81
2021/03/25 03:20:12;;;;;;;2.55;2.17;;;;;;;-2.95;93.98;93406.88;2124240;27;20417;-80
2021/03/25 03:21:41;;;;;;;3.20;2.28;;;;;;;-3.02;93.69;93409.25;2115403;28;20422;-81
2021/03/25 03:22:42;;;;;;;2.28;1.98;;;;;;;-3.00;93.82;93401.84;2081244;28;20459;-80
2021/03/25 03:23:43;;;;;;;2.75;2.25;;;;;;;-3.01;93.85;93408.16;2088518;28;20056;-81
2021/03/25 03:24:48;;;;;;;3.80;2.33;;;;;;;-3.04;93.93;93402.47;2090560;28;20120;-79
2021/03/25 03:25:49;;;;;;;3.63;2.40;;;;;;;-3.02;93.15;93409.25;2090892;28;20418;-80
2021/03/25 03:27:04;;;;;;;4.85;2.50;;;;;;;-3.01;93.00;93401.09;2098654;28;20441;-80
2021/03/25 03:28:23;;;;;;;3.40;2.17;;;;;;;-3.00;93.45;93407.06;2094699;28;20506;-81
2021/03/25 03:29:26;;;;;;;2.83;2.40;;;;;;;-3.05;93.74;93400.97;2092841;28;20439;-80
2021/03/25 03:30:34;;;;;;;3.10;2.40;;;;;;;-3.05;94.47;93410.66;2082657;28;20447;-81
2021/03/25 03:31:42;;;;;;;2.88;1.98;;;;;;;-3.09;94.16;93399.31;2091406;28;20439;-79
2021/03/25 03:33:18;;;;;;;3.15;2.05;;;;;;;-3.02;93.65;93393.56;2092524;28;20455;-80
2021/03/25 03:34:24;;;;;;;4.20;2.42;;;;;;;-3.10;92.85;93400.41;2082025;28;20460;-81
2021/03/25 03:36:00;;;;;;;4.32;2.22;;;;;;;-3.10;93.35;93405.63;2094643;28;20980;-81
2021/03/25 03:37:13;;;;;;;3.60;2.10;;;;;;;-3.16;93.36;93397.25;2078275;28;20833;-81
2021/03/25 03:38:33;;;;;;;3.00;2.17;;;;;;;-3.14;93.13;93402.91;2105780;28;20811;-80
2021/03/25 03:39:34;;;;;;;3.88;2.30;;;;;;;-3.14;94.07;93404.75;2101250;28;20422;-81
2021/03/25 03:40:39;;;;;;;3.50;2.30;;;;;;;-3.14;93.95;93399.53;2090531;28;20139;-81
2021/03/25 03:41:55;;;;;;;3.42;2.25;;;;;;;-3.21;94.58;93394.81;2091615;28;20470;-81
2021/03/25 03:43:03;;;;;;;2.47;1.80;;;;;;;-3.18;94.44;93396.03;2100656;28;20439;-81
2021/03/25 03:44:07;;;;;;;2.88;2.20;;;;;;;-3.23;94.21;93396.22;2106777;28;20438;-81
2021/03/25 03:45:13;;;;;;;4.03;2.58;;;;;;;-3.18;94.78;93398.63;2099120;28;20970;-81
2021/03/25 03:46:18;;;;;;;3.55;2.35;;;;;;;-3.22;94.80;93393.28;2099257;28;21383;-81
2021/03/25 03:47:23;;;;;;;2.58;2.38;;;;;;;-3.17;94.16;93395.69;2099301;28;20446;-81
2021/03/25 03:48:40;;;;;;;2.88;2.22;;;;;;;-3.12;93.87;93397.34;2090814;28;20473;-82
2021/03/25 03:50:01;;;;;;;3.67;2.50;;;;;;;-3.16;93.98;93393.84;2094808;28;20432;-81
2021/03/25 03:51:05;;;;;;;4.18;2.42;;;;;;;-3.17;94.48;93392.31;2092997;28;20469;-82
2021/03/25 03:52:28;;;;;;;3.05;2.25;;;;;;;-3.19;94.75;93397.13;2099410;28;20848;-82
2021/03/25 03:53:30;;;;;;;2.22;2.03;;;;;;;-3.20;94.68;93393.75;2098536;28;20832;-81
2021/03/25 03:54:31;;;;;;;4.13;2.55;;;;;;;-3.20;94.28;93393.75;2098674;28;20438;-81
2021/03/25 03:55:31;;;;;;;3.72;2.33;;;;;;;-3.20;95.23;93398.97;2097495;28;20920;-81
2021/03/25 03:56:59;;;;;;;3.13;2.33;;;;;;;-3.23;94.99;93396.22;2081944;28;20449;-79
2021/03/25 03:58:32;;;;;;;4.70;1.98;;;;;;;-3.25;94.38;93396.53;2102948;27;20042;-82
2021/03/25 03:59:55;;;;;;;5.10;2.17;;;;;;;-3.24;94.75;93394.72;2110729;28;20426;-81
2021/03/25 04:01:06;;;;;;;2.25;1.85;;;;;;;-3.24;95.23;93392.09;2112874;27;20485;-80
2021/03/25 04:02:47;;;;;;;2.35;2.13;;;;;;;-3.29;95.39;93403.50;2116640;27;20805;-82
2021/03/25 04:03:49;;;;;;;2.13;1.95;;;;;;;-3.28;95.43;93399.81;2093296;28;20812;-81
2021/03/25 04:05:13;;;;;;;2.95;2.00;;;;;;;-3.29;95.38;93393.06;2082180;28;20470;-82
2021/03/25 04:06:30;;;;;;;2.55;2.35;;;;;;;-3.28;95.92;93402.41;2094173;28;20538;-82
2021/03/25 04:07:36;;;;;;;3.15;2.50;;;;;;;-3.29;95.86;93398.28;2092326;28;20435;-81
2021/03/25 04:08:56;;;;;;;3.78;2.22;;;;;;;-3.29;95.37;93406.13;2099706;28;20467;-80
2021/03/25 04:10:03;;;;;;;;;;;;;;;-3.33;95.75;93402.63;2104000;28;20568;-80
2021/03/25 04:11:16;;;;;;;2.47;1.63;;;;;;;-3.31;95.19;93400.44;2076386;28;20321;-81
2021/03/25 04:12:23;;;;;;;2.83;2.35;;;;;;;-3.32;95.15;93399.69;2086465;28;20518;-81
2021/03/25 04:13:54;;;;;;;2.80;2.20;;;;;;;-3.34;94.67;93394.00;2082763;28;20440;-80
2021/03/25 04:15:02;;;;;;;3.22;1.92;;;;;;;-3.28;95.07;93401.66;2081896;28;21070;-82
2021/03/25 04:16:02;;;;;;;3.00;1.85;;;;;;;-3.30;95.31;93392.28;2091980;28;20435;-79
2021/03/25 04:17:08;;;;;;;3.00;2.00;;;;;;;-3.31;95.30;93395.22;2104999;28;21170;-81
2021/03/25 04:18:55;;;;;;;2.70;2.10;;;;;;;-3.32;94.57;93393.69;2103362;28;20114;-80
2021/03/25 04:20:02;;;;;;;3.05;2.20;;;;;;;-3.32;94.70;93399.69;2072656;28;20512;-81
2021/03/25 04:21:21;;;;;;;2.95;2.15;;;;;;;-3.33;94.12;93397.41;2103315;28;20533;-81
2021/03/25 04:22:25;;;;;;;2.17;1.90;;;;;;;-3.39;93.74;93402.03;2100763;28;20624;-81
2021/03/25 04:23:29;;;;;;;2.63;1.88;;;;;;;-3.37;94.98;93401.72;2102538;28;20488;-81
2021/03/25 04:24:40;;;;;;;3.33;2.13;;;;;;;-3.36;93.57;93396.19;2107106;28;20442;-80
2021/03/25 04:25:48;;;;;;;2.20;1.90;;;;;;;-3.36;94.01;93396.19;2095880;28;20452;-81
2021/03/25 04:26:57;;;;;;;2.60;1.90;;;;;;;-3.33;94.00;93392.16;2075355;28;20455;-80
2021/03/25 04:28:07;;;;;;;2.53;2.08;;;;;;;-3.29;94.66;93387.84;2075848;28;20445;-81
2021/03/25 04:29:23;;;;;;;3.72;2.38;;;;;;;-3.31;94.81;93390.00;2092375;28;20487;-81
2021/03/25 04:30:30;;;;;;;3.38;2.00;;;;;;;-3.30;94.54;93397.50;2098226;28;20047;-81
2021/03/25 04:31:32;;;;;;;3.00;2.20;;;;;;;-3.37;94.42;93386.81;2096634;28;20454;-80
2021/03/25 04:32:32;;;;;;;4.78;2.10;;;;;;;-3.32;95.02;93398.91;2099370;28;20426;-80
2021/03/25 04:33:36;;;;;;;3.83;1.70;;;;;;;-3.35;94.88;93391.72;2103275;28;21021;-80
2021/03/25 04:34:36;;;;;;;2.70;1.90;;;;;;;-3.42;95.69;93397.47;2090576;28;20060;-81
2021/03/25 04:35:40;;;;;;;2.92;2.00;;;;;;;-3.41;95.76;93393.78;2097576;28;20990;-82
2021/03/25 04:36:43;;;;;;;2.42;2.10;;;;;;;-3.42;95.03;93394.84;2099067;28;20409;-81
2021/03/25 04:37:46;;;;;;;3.20;2.10;;;;;;;-3.42;95.25;93392.25;2098435;28;20451;-80
2021/03/25 04:38:48;;;;;;;4.43;2.30;;;;;;;-3.38;95.29;93387.13;2090352;28;20443;-81
2021/03/25 04:39:49;;;;;;;3.55;2.00;;;;;;;-3.37;94.85;93386.06;2098111;28;20443;-81
2021/03/25 04:40:54;;;;;;;2.58;2.30;;;;;;;-3.38;95.21;93387.13;2098219;28;20439;-81
2021/03/25 04:41:55;;;;;;;4.10;2.40;;;;;;;-3.40;95.57;93390.06;2090358;28;20793;-81
2021/03/25 04:42:56;;;;;;;2.70;2.17;;;;;;;-3.43;95.38;93388.09;2098130;28;20449;-79
2021/03/25 04:44:03;;;;;;;3.35;2.20;;;;;;;-3.41;95.54;93391.16;2112154;28;20589;-79
2021/03/25 04:45:14;;;;;;;2.55;2.05;;;;;;;-3.40;95.05;93392.69;2102274;28;20425;-80
2021/03/25 04:46:30;;;;;;;2.95;2.30;;;;;;;-3.46;95.14;93393.97;2094381;28;20558;-81
2021/03/25 04:47:41;;;;;;;4.30;2.08;;;;;;;-3.39;95.21;93394.19;2091919;28;20809;-81
2021/03/25 04:48:44;;;;;;;3.55;1.90;;;;;;;-3.42;95.67;93400.09;2082856;28;20587;-79
2021/03/25 04:49:55;;;;;;;4.13;2.53;;;;;;;-3.40;95.32;93391.91;2082338;28;20420;-81
2021/03/25 04:51:05;;;;;;;3.45;2.00;;;;;;;-3.44;95.64;93394.41;2093496;28;21013;-80
2021/03/25 04:52:13;;;;;;;3.03;2.13;;;;;;;-3.43;96.02;93397.78;2106440;28;20810;-80
2021/03/25 04:53:24;;;;;;;2.67;2.25;;;;;;;-3.41;95.97;93395.63;2100105;28;20064;-81
2021/03/25 04:54:27;;;;;;;3.17;2.13;;;;;;;-3.43;95.65;93400.38;2099302;28;20494;-82
2021/03/25 04:55:33;;;;;;;2.55;2.17;;;;;;;-3.45;95.18;93397.34;2090017;28;20450;-81
2021/03/25 04:56:34;;;;;;;4.22;2.03;;;;;;;-3.47;95.36;93402.88;2083021;28;20507;-81
2021/03/25 04:57:39;;;;;;;2.83;2.13;;;;;;;-3.47;95.22;93395.03;2081603;28;20521;-81
2021/03/25 04:58:46;;;;;;;2.83;1.88;;;;;;;-3.46;95.74;93396.59;2074768;28;20969;-82
2021/03/25 04:59:47;;;;;;;3.15;2.08;;;;;;;-3.47;95.67;93392.41;2097928;28;20482;-81
2021/03/25 05:00:47;;;;;;;3.05;2.00;;;;;;;-3.45;95.31;93394.72;2082707;28;20444;-81
2021/03/25 05:01:48;;;;;;;3.22;2.38;;;;;;;-3.50;94.84;93394.94;2088499;28;20076;-80
2021/03/25 05:02:48;;;;;;;3.17;2.13;;;;;;;-3.45;95.48;93395.50;2089755;28;20021;-81
2021/03/25 05:03:54;;;;;;;2.80;1.95;;;;;;;-3.43;95.71;93397.78;2097766;28;20115;-81
2021/03/25 05:04:56;;;;;;;2.97;2.10;;;;;;;-3.50;94.79;93393.06;2113113;28;20059;-82
2021/03/25 05:05:57;;;;;;;2.85;2.10;;;;;;;-3.51;95.08;93396.00;2097837;28;20483;-81
2021/03/25 05:07:00;;;;;;;3.05;2.55;;;;;;;-3.49;95.45;93394.59;2089729;28;20444;-80
2021/03/25 05:08:05;;;;;;;3.78;2.33;;;;;;;-3.49;95.09;93399.81;2082096;28;20817;-80
2021/03/25 05:09:06;;;;;;;4.00;2.45;;;;;;;-3.48;95.15;93400.59;2090318;28;20820;-80
2021/03/25 05:10:19;;;;;;;5.50;2.10;;;;;;;-3.46;95.34;93399.19;2081452;28;20450;-81
2021/03/25 05:11:21;;;;;;;2.97;2.20;;;;;;;-3.45;95.21;93405.19;2091568;28;20059;-80
2021/03/25 05:12:22;;;;;;;2.17;1.98;;;;;;;-3.44;94.75;93401.47;2100731;28;20545;-81
2021/03/25 05:13:28;;;;;;;5.78;2.38;;;;;;;-3.47;95.05;93399.50;2106262;28;20880;-81
2021/03/25 05:14:29;;;;;;;2.90;2.30;;;;;;;-3.50;95.04;93405.38;2106095;28;20442;-80
2021/03/25 05:15:31;;;;;;;2.75;2.53;;;;;;;-3.41;95.27;93406.84;2103913;28;20458;-80
2021/03/25 05:17:10;;;;;;;4.65;4.03;;;;;;;-3.46;94.91;93406.28;2106286;28;20524;-79
2021/03/25 05:18:30;;;;;;;6.53;4.13;;;;;;;-3.47;94.88;93402.09;2100237;28;20511;-81
2021/03/25 05:19:37;;;;;;;6.13;4.00;;;;;;;-3.51;95.08;93401.22;2103171;28;20951;-81